Portada
METAR-TAF:

METAR-TAF

Aeroports :

Mannheim, Alemanya

latitud: 49-28-21N, longitud: 008-30-56E, altitud: 100 m

Observació

L'informe es va fer fa 25 minuts, a les 08:50 UTC
Vent 6 kt del Sud-Oest, variant entre Sud i Oest
Temperatura 6°C
Humitat 65%
Pressió 1030 hPa
Visibilitat 10 km o més
sense núvols per sota de 1500 mi sense presència de cumulonimbus.

METAR: EDFM 210850Z 22006KT 170V260 CAVOK 06/00 Q1030

Hora: 10:15 (09:15 UTC)

Pronòstic

L'informe es va fer fa 1 hora i 15 minuts, a les 08:00 UTC
Pronòstic vàlid del 21 a les 09 UTC al 21 a les 18 UTC
Vent 8 kt del Sud-Oest
Visibilitat 10 km o més
Escasses núvols a una alçada de 3000 ft

TAF: EDFM 210800Z 2109/2118 23008KT 9999 FEW030

Observacions i pronòstics meteorològics de més de 4000 aeroports (METAR i TAF).

Les estacions disponibles són els punts grocs i vermells al mapa.

Posi el ratolí al punt desitjat per veure el nom de l'estació.

Feu clic per veure les observacions i els pronòstics meteorològics.

Per canviar el mapa: feu clic els botons verds amb una creu de color negre per apropar; al botó verd amb un guió per allunyar la imatge; o en les fletxes verdes per a mapes adjacents.


METAR-TAF: